sensor_id;sensor_type;location;lat;lon;timestamp;P1;durP1;ratioP1;P2;durP2;ratioP2
49392;SDS011;35268;42.642;23.308;2023-03-23T00:01:11;23.23;;;11.57;;
49392;SDS011;35268;42.642;23.308;2023-03-23T00:03:38;19.30;;;10.88;;
49392;SDS011;35268;42.642;23.308;2023-03-23T00:06:05;19.20;;;10.05;;
49392;SDS011;35268;42.642;23.308;2023-03-23T00:08:32;18.73;;;9.95;;
49392;SDS011;35268;42.642;23.308;2023-03-23T00:10:59;21.02;;;10.00;;
49392;SDS011;35268;42.642;23.308;2023-03-23T00:13:26;17.30;;;9.70;;
49392;SDS011;35268;42.642;23.308;2023-03-23T00:15:52;18.23;;;10.38;;
49392;SDS011;35268;42.642;23.308;2023-03-23T00:18:18;19.08;;;10.40;;
49392;SDS011;35268;42.642;23.308;2023-03-23T00:20:51;17.17;;;9.82;;
49392;SDS011;35268;42.642;23.308;2023-03-23T00:23:19;16.38;;;9.43;;
49392;SDS011;35268;42.642;23.308;2023-03-23T00:25:46;15.60;;;9.35;;
49392;SDS011;35268;42.642;23.308;2023-03-23T00:28:18;18.77;;;10.55;;
49392;SDS011;35268;42.642;23.308;2023-03-23T00:30:53;17.75;;;10.07;;
49392;SDS011;35268;42.642;23.308;2023-03-23T00:33:21;18.30;;;10.57;;
49392;SDS011;35268;42.642;23.308;2023-03-23T00:35:47;18.02;;;9.50;;
49392;SDS011;35268;42.642;23.308;2023-03-23T00:38:13;18.52;;;10.38;;
49392;SDS011;35268;42.642;23.308;2023-03-23T00:40:39;16.95;;;8.98;;
49392;SDS011;35268;42.642;23.308;2023-03-23T00:43:04;15.75;;;8.38;;
49392;SDS011;35268;42.642;23.308;2023-03-23T00:45:30;15.43;;;8.82;;
49392;SDS011;35268;42.642;23.308;2023-03-23T00:47:55;18.17;;;9.40;;
49392;SDS011;35268;42.642;23.308;2023-03-23T00:50:21;19.40;;;9.57;;
49392;SDS011;35268;42.642;23.308;2023-03-23T00:52:47;17.92;;;8.57;;
49392;SDS011;35268;42.642;23.308;2023-03-23T00:55:14;15.82;;;8.75;;
49392;SDS011;35268;42.642;23.308;2023-03-23T00:57:40;19.08;;;9.43;;
49392;SDS011;35268;42.642;23.308;2023-03-23T01:00:05;18.65;;;10.20;;
49392;SDS011;35268;42.642;23.308;2023-03-23T01:02:35;23.65;;;11.65;;
49392;SDS011;35268;42.642;23.308;2023-03-23T01:05:01;21.23;;;10.23;;
49392;SDS011;35268;42.642;23.308;2023-03-23T01:07:28;25.05;;;11.25;;
49392;SDS011;35268;42.642;23.308;2023-03-23T01:09:56;21.35;;;11.10;;
49392;SDS011;35268;42.642;23.308;2023-03-23T01:12:22;20.80;;;10.50;;
49392;SDS011;35268;42.642;23.308;2023-03-23T01:14:49;25.65;;;12.23;;
49392;SDS011;35268;42.642;23.308;2023-03-23T01:17:16;23.60;;;10.75;;
49392;SDS011;35268;42.642;23.308;2023-03-23T01:19:41;20.52;;;9.93;;
49392;SDS011;35268;42.642;23.308;2023-03-23T01:22:07;21.85;;;11.15;;
49392;SDS011;35268;42.642;23.308;2023-03-23T01:24:32;19.02;;;10.25;;
49392;SDS011;35268;42.642;23.308;2023-03-23T01:26:58;19.63;;;10.05;;
49392;SDS011;35268;42.642;23.308;2023-03-23T01:29:26;20.15;;;11.15;;
49392;SDS011;35268;42.642;23.308;2023-03-23T01:31:52;24.13;;;10.68;;
49392;SDS011;35268;42.642;23.308;2023-03-23T01:34:17;18.75;;;9.95;;
49392;SDS011;35268;42.642;23.308;2023-03-23T01:36:43;17.48;;;9.90;;
49392;SDS011;35268;42.642;23.308;2023-03-23T01:39:08;20.63;;;10.38;;
49392;SDS011;35268;42.642;23.308;2023-03-23T01:41:34;22.40;;;11.35;;
49392;SDS011;35268;42.642;23.308;2023-03-23T01:44:05;17.98;;;10.13;;
49392;SDS011;35268;42.642;23.308;2023-03-23T01:46:34;19.73;;;11.18;;
49392;SDS011;35268;42.642;23.308;2023-03-23T01:49:23;23.30;;;12.50;;
49392;SDS011;35268;42.642;23.308;2023-03-23T01:51:53;30.92;;;15.07;;
49392;SDS011;35268;42.642;23.308;2023-03-23T01:54:21;25.33;;;15.45;;
49392;SDS011;35268;42.642;23.308;2023-03-23T01:56:56;27.13;;;16.55;;
49392;SDS011;35268;42.642;23.308;2023-03-23T01:59:29;26.65;;;15.80;;
49392;SDS011;35268;42.642;23.308;2023-03-23T02:01:58;31.52;;;15.93;;
49392;SDS011;35268;42.642;23.308;2023-03-23T02:04:25;29.80;;;15.75;;
49392;SDS011;35268;42.642;23.308;2023-03-23T02:06:52;25.77;;;15.93;;
49392;SDS011;35268;42.642;23.308;2023-03-23T02:09:19;27.88;;;16.17;;
49392;SDS011;35268;42.642;23.308;2023-03-23T02:11:46;27.90;;;15.73;;
49392;SDS011;35268;42.642;23.308;2023-03-23T02:14:13;26.30;;;15.35;;
49392;SDS011;35268;42.642;23.308;2023-03-23T02:33:13;19.20;;;10.75;;
49392;SDS011;35268;42.642;23.308;2023-03-23T02:35:56;16.40;;;9.57;;
49392;SDS011;35268;42.642;23.308;2023-03-23T02:39:03;16.60;;;10.18;;
49392;SDS011;35268;42.642;23.308;2023-03-23T02:41:39;16.08;;;9.52;;
49392;SDS011;35268;42.642;23.308;2023-03-23T02:46:36;17.45;;;9.02;;
49392;SDS011;35268;42.642;23.308;2023-03-23T02:49:05;17.70;;;9.35;;
49392;SDS011;35268;42.642;23.308;2023-03-23T02:51:33;21.38;;;9.15;;
49392;SDS011;35268;42.642;23.308;2023-03-23T02:54:02;16.55;;;9.95;;
49392;SDS011;35268;42.642;23.308;2023-03-23T02:56:29;14.63;;;8.07;;
49392;SDS011;35268;42.642;23.308;2023-03-23T02:58:58;16.00;;;9.40;;
49392;SDS011;35268;42.642;23.308;2023-03-23T03:03:54;13.27;;;8.35;;
49392;SDS011;35268;42.642;23.308;2023-03-23T03:11:34;15.77;;;8.60;;
49392;SDS011;35268;42.642;23.308;2023-03-23T03:14:08;16.17;;;8.23;;
49392;SDS011;35268;42.642;23.308;2023-03-23T03:19:46;18.90;;;9.82;;
49392;SDS011;35268;42.642;23.308;2023-03-23T03:22:15;20.92;;;12.82;;
49392;SDS011;35268;42.642;23.308;2023-03-23T03:24:42;24.38;;;14.23;;
49392;SDS011;35268;42.642;23.308;2023-03-23T03:27:13;26.17;;;14.60;;
49392;SDS011;35268;42.642;23.308;2023-03-23T03:29:41;29.77;;;16.60;;
49392;SDS011;35268;42.642;23.308;2023-03-23T03:32:11;26.63;;;15.40;;
49392;SDS011;35268;42.642;23.308;2023-03-23T03:34:43;28.17;;;15.82;;
49392;SDS011;35268;42.642;23.308;2023-03-23T03:37:09;28.17;;;16.63;;
49392;SDS011;35268;42.642;23.308;2023-03-23T03:39:36;26.85;;;16.20;;
49392;SDS011;35268;42.642;23.308;2023-03-23T03:42:03;27.48;;;15.95;;
49392;SDS011;35268;42.642;23.308;2023-03-23T03:44:31;23.92;;;14.05;;
49392;SDS011;35268;42.642;23.308;2023-03-23T03:46:58;22.55;;;13.13;;
49392;SDS011;35268;42.642;23.308;2023-03-23T03:49:23;21.83;;;12.82;;
49392;SDS011;35268;42.642;23.308;2023-03-23T03:51:50;18.55;;;11.43;;
49392;SDS011;35268;42.642;23.308;2023-03-23T03:54:16;19.40;;;10.50;;
49392;SDS011;35268;42.642;23.308;2023-03-23T03:56:41;23.08;;;12.43;;
49392;SDS011;35268;42.642;23.308;2023-03-23T03:59:07;21.25;;;10.85;;
49392;SDS011;35268;42.642;23.308;2023-03-23T04:01:35;24.33;;;12.07;;
49392;SDS011;35268;42.642;23.308;2023-03-23T04:04:05;21.95;;;12.00;;
49392;SDS011;35268;42.642;23.308;2023-03-23T04:06:32;16.23;;;10.50;;
49392;SDS011;35268;42.642;23.308;2023-03-23T04:09:01;25.73;;;10.95;;
49392;SDS011;35268;42.642;23.308;2023-03-23T04:11:30;18.50;;;10.10;;
49392;SDS011;35268;42.642;23.308;2023-03-23T04:13:56;20.58;;;10.68;;
49392;SDS011;35268;42.642;23.308;2023-03-23T04:16:21;16.52;;;9.05;;
49392;SDS011;35268;42.642;23.308;2023-03-23T04:18:47;17.45;;;9.02;;
49392;SDS011;35268;42.642;23.308;2023-03-23T04:21:13;22.60;;;8.95;;
49392;SDS011;35268;42.642;23.308;2023-03-23T04:23:39;16.85;;;8.75;;
49392;SDS011;35268;42.642;23.308;2023-03-23T04:26:05;16.00;;;8.57;;
49392;SDS011;35268;42.642;23.308;2023-03-23T04:28:31;17.45;;;7.68;;
49392;SDS011;35268;42.642;23.308;2023-03-23T04:30:58;19.23;;;8.15;;
49392;SDS011;35268;42.642;23.308;2023-03-23T04:33:25;13.15;;;7.88;;
49392;SDS011;35268;42.642;23.308;2023-03-23T04:35:53;17.42;;;8.85;;
49392;SDS011;35268;42.642;23.308;2023-03-23T04:38:20;20.70;;;7.93;;
49392;SDS011;35268;42.642;23.308;2023-03-23T04:40:48;14.70;;;7.97;;
49392;SDS011;35268;42.642;23.308;2023-03-23T04:43:19;13.60;;;7.60;;
49392;SDS011;35268;42.642;23.308;2023-03-23T04:45:46;16.90;;;8.80;;
49392;SDS011;35268;42.642;23.308;2023-03-23T04:48:16;15.70;;;9.35;;
49392;SDS011;35268;42.642;23.308;2023-03-23T04:50:42;15.95;;;9.80;;
49392;SDS011;35268;42.642;23.308;2023-03-23T04:53:08;17.50;;;8.93;;
49392;SDS011;35268;42.642;23.308;2023-03-23T04:55:35;14.63;;;8.70;;
49392;SDS011;35268;42.642;23.308;2023-03-23T04:58:04;30.50;;;14.95;;
49392;SDS011;35268;42.642;23.308;2023-03-23T05:00:31;23.27;;;13.82;;
49392;SDS011;35268;42.642;23.308;2023-03-23T05:02:57;27.63;;;16.73;;
49392;SDS011;35268;42.642;23.308;2023-03-23T05:05:23;32.28;;;17.15;;
49392;SDS011;35268;42.642;23.308;2023-03-23T05:07:50;44.15;;;18.58;;
49392;SDS011;35268;42.642;23.308;2023-03-23T05:10:16;39.30;;;17.17;;
49392;SDS011;35268;42.642;23.308;2023-03-23T05:12:42;32.53;;;16.83;;
49392;SDS011;35268;42.642;23.308;2023-03-23T05:15:09;35.25;;;18.35;;
49392;SDS011;35268;42.642;23.308;2023-03-23T05:17:35;39.92;;;20.67;;
49392;SDS011;35268;42.642;23.308;2023-03-23T05:20:02;40.90;;;21.00;;
49392;SDS011;35268;42.642;23.308;2023-03-23T05:22:30;41.10;;;21.25;;
49392;SDS011;35268;42.642;23.308;2023-03-23T05:24:59;41.88;;;22.42;;
49392;SDS011;35268;42.642;23.308;2023-03-23T05:27:27;45.05;;;24.95;;
49392;SDS011;35268;42.642;23.308;2023-03-23T05:29:55;46.05;;;24.15;;
49392;SDS011;35268;42.642;23.308;2023-03-23T05:32:20;42.58;;;21.65;;
49392;SDS011;35268;42.642;23.308;2023-03-23T05:34:46;48.67;;;23.58;;
49392;SDS011;35268;42.642;23.308;2023-03-23T05:37:11;44.88;;;22.73;;
49392;SDS011;35268;42.642;23.308;2023-03-23T05:39:38;53.85;;;23.38;;
49392;SDS011;35268;42.642;23.308;2023-03-23T05:42:04;41.97;;;21.60;;
49392;SDS011;35268;42.642;23.308;2023-03-23T05:44:31;43.80;;;23.25;;
49392;SDS011;35268;42.642;23.308;2023-03-23T05:46:56;43.08;;;22.20;;
49392;SDS011;35268;42.642;23.308;2023-03-23T05:49:22;42.40;;;21.98;;
49392;SDS011;35268;42.642;23.308;2023-03-23T05:51:47;54.63;;;24.05;;
49392;SDS011;35268;42.642;23.308;2023-03-23T05:54:15;47.40;;;22.55;;
49392;SDS011;35268;42.642;23.308;2023-03-23T05:56:41;55.85;;;28.23;;
49392;SDS011;35268;42.642;23.308;2023-03-23T05:59:07;43.70;;;23.95;;
49392;SDS011;35268;42.642;23.308;2023-03-23T06:01:34;41.10;;;19.30;;
49392;SDS011;35268;42.642;23.308;2023-03-23T06:04:00;35.22;;;17.00;;
49392;SDS011;35268;42.642;23.308;2023-03-23T06:06:26;35.38;;;18.85;;
49392;SDS011;35268;42.642;23.308;2023-03-23T06:08:54;34.97;;;19.20;;
49392;SDS011;35268;42.642;23.308;2023-03-23T06:11:21;41.72;;;20.13;;
49392;SDS011;35268;42.642;23.308;2023-03-23T06:13:48;34.15;;;18.45;;
49392;SDS011;35268;42.642;23.308;2023-03-23T06:16:13;30.63;;;16.98;;
49392;SDS011;35268;42.642;23.308;2023-03-23T06:18:39;36.45;;;17.60;;
49392;SDS011;35268;42.642;23.308;2023-03-23T06:21:05;33.90;;;18.85;;
49392;SDS011;35268;42.642;23.308;2023-03-23T06:23:33;40.10;;;18.40;;
49392;SDS011;35268;42.642;23.308;2023-03-23T06:26:00;37.45;;;19.02;;
49392;SDS011;35268;42.642;23.308;2023-03-23T06:28:28;39.58;;;20.65;;
49392;SDS011;35268;42.642;23.308;2023-03-23T06:30:54;38.92;;;19.05;;
49392;SDS011;35268;42.642;23.308;2023-03-23T06:33:19;46.72;;;19.52;;
49392;SDS011;35268;42.642;23.308;2023-03-23T06:35:45;40.10;;;22.10;;
49392;SDS011;35268;42.642;23.308;2023-03-23T06:38:11;45.00;;;21.90;;
49392;SDS011;35268;42.642;23.308;2023-03-23T06:40:37;41.70;;;19.67;;
49392;SDS011;35268;42.642;23.308;2023-03-23T06:43:03;36.88;;;18.63;;
49392;SDS011;35268;42.642;23.308;2023-03-23T06:45:29;38.63;;;19.35;;
49392;SDS011;35268;42.642;23.308;2023-03-23T06:47:55;43.08;;;22.70;;
49392;SDS011;35268;42.642;23.308;2023-03-23T06:50:21;37.70;;;19.73;;
49392;SDS011;35268;42.642;23.308;2023-03-23T06:52:47;35.83;;;19.88;;
49392;SDS011;35268;42.642;23.308;2023-03-23T06:55:14;30.70;;;19.17;;
49392;SDS011;35268;42.642;23.308;2023-03-23T06:57:40;34.05;;;19.38;;
49392;SDS011;35268;42.642;23.308;2023-03-23T07:00:07;46.83;;;21.10;;
49392;SDS011;35268;42.642;23.308;2023-03-23T07:02:36;36.90;;;20.70;;
49392;SDS011;35268;42.642;23.308;2023-03-23T07:05:02;32.92;;;18.63;;
49392;SDS011;35268;42.642;23.308;2023-03-23T07:07:28;43.72;;;19.88;;
49392;SDS011;35268;42.642;23.308;2023-03-23T07:09:54;34.28;;;19.77;;
49392;SDS011;35268;42.642;23.308;2023-03-23T07:12:20;46.15;;;21.25;;
49392;SDS011;35268;42.642;23.308;2023-03-23T07:14:46;57.88;;;24.58;;
49392;SDS011;35268;42.642;23.308;2023-03-23T07:17:12;50.58;;;24.05;;
49392;SDS011;35268;42.642;23.308;2023-03-23T07:19:37;50.25;;;22.95;;
49392;SDS011;35268;42.642;23.308;2023-03-23T07:22:06;50.33;;;22.60;;
49392;SDS011;35268;42.642;23.308;2023-03-23T07:24:32;50.15;;;22.00;;
49392;SDS011;35268;42.642;23.308;2023-03-23T07:26:59;38.53;;;21.13;;
49392;SDS011;35268;42.642;23.308;2023-03-23T07:29:24;41.50;;;19.65;;
49392;SDS011;35268;42.642;23.308;2023-03-23T07:31:50;35.53;;;20.02;;
49392;SDS011;35268;42.642;23.308;2023-03-23T07:34:17;38.95;;;20.08;;
49392;SDS011;35268;42.642;23.308;2023-03-23T07:36:44;41.65;;;21.02;;
49392;SDS011;35268;42.642;23.308;2023-03-23T07:39:09;36.38;;;20.05;;
49392;SDS011;35268;42.642;23.308;2023-03-23T07:41:35;35.70;;;18.77;;
49392;SDS011;35268;42.642;23.308;2023-03-23T07:44:00;42.97;;;19.05;;
49392;SDS011;35268;42.642;23.308;2023-03-23T07:46:26;47.95;;;20.33;;
49392;SDS011;35268;42.642;23.308;2023-03-23T07:48:52;36.53;;;20.58;;
49392;SDS011;35268;42.642;23.308;2023-03-23T07:51:18;40.00;;;19.20;;
49392;SDS011;35268;42.642;23.308;2023-03-23T07:53:43;37.55;;;17.63;;
49392;SDS011;35268;42.642;23.308;2023-03-23T07:56:12;36.35;;;16.70;;
49392;SDS011;35268;42.642;23.308;2023-03-23T07:58:40;33.38;;;18.45;;
49392;SDS011;35268;42.642;23.308;2023-03-23T08:01:06;35.03;;;19.17;;
49392;SDS011;35268;42.642;23.308;2023-03-23T08:03:33;34.25;;;17.13;;
49392;SDS011;35268;42.642;23.308;2023-03-23T08:05:59;28.02;;;16.10;;
49392;SDS011;35268;42.642;23.308;2023-03-23T08:08:25;43.72;;;17.83;;
49392;SDS011;35268;42.642;23.308;2023-03-23T08:10:50;33.47;;;18.42;;
49392;SDS011;35268;42.642;23.308;2023-03-23T08:13:16;33.30;;;17.08;;
49392;SDS011;35268;42.642;23.308;2023-03-23T08:15:41;29.40;;;15.93;;
49392;SDS011;35268;42.642;23.308;2023-03-23T08:18:08;28.30;;;15.60;;
49392;SDS011;35268;42.642;23.308;2023-03-23T08:20:33;27.90;;;14.30;;
49392;SDS011;35268;42.642;23.308;2023-03-23T08:23:00;29.05;;;15.23;;
49392;SDS011;35268;42.642;23.308;2023-03-23T08:25:27;33.20;;;13.65;;
49392;SDS011;35268;42.642;23.308;2023-03-23T08:27:56;31.38;;;15.95;;
49392;SDS011;35268;42.642;23.308;2023-03-23T08:30:21;27.00;;;15.40;;
49392;SDS011;35268;42.642;23.308;2023-03-23T08:32:47;29.35;;;15.30;;
49392;SDS011;35268;42.642;23.308;2023-03-23T08:35:15;25.00;;;13.50;;
49392;SDS011;35268;42.642;23.308;2023-03-23T08:37:40;28.08;;;12.80;;
49392;SDS011;35268;42.642;23.308;2023-03-23T08:40:10;22.17;;;12.02;;
49392;SDS011;35268;42.642;23.308;2023-03-23T08:42:39;19.33;;;10.73;;
49392;SDS011;35268;42.642;23.308;2023-03-23T08:45:08;21.13;;;9.38;;
49392;SDS011;35268;42.642;23.308;2023-03-23T08:47:36;19.17;;;8.63;;
49392;SDS011;35268;42.642;23.308;2023-03-23T08:50:03;17.92;;;8.00;;
49392;SDS011;35268;42.642;23.308;2023-03-23T08:52:30;13.15;;;7.28;;
49392;SDS011;35268;42.642;23.308;2023-03-23T08:54:56;12.32;;;4.88;;
49392;SDS011;35268;42.642;23.308;2023-03-23T08:57:22;9.93;;;5.68;;
49392;SDS011;35268;42.642;23.308;2023-03-23T08:59:48;9.73;;;5.50;;
49392;SDS011;35268;42.642;23.308;2023-03-23T09:02:13;13.77;;;6.78;;
49392;SDS011;35268;42.642;23.308;2023-03-23T09:04:39;12.70;;;6.20;;
49392;SDS011;35268;42.642;23.308;2023-03-23T09:07:07;26.55;;;7.00;;
49392;SDS011;35268;42.642;23.308;2023-03-23T09:09:37;11.88;;;6.78;;
49392;SDS011;35268;42.642;23.308;2023-03-23T09:12:04;11.57;;;6.05;;
49392;SDS011;35268;42.642;23.308;2023-03-23T09:14:31;19.10;;;7.88;;
49392;SDS011;35268;42.642;23.308;2023-03-23T09:16:56;11.57;;;6.97;;
49392;SDS011;35268;42.642;23.308;2023-03-23T09:19:22;14.65;;;7.55;;
49392;SDS011;35268;42.642;23.308;2023-03-23T09:21:48;12.15;;;7.13;;
49392;SDS011;35268;42.642;23.308;2023-03-23T09:24:13;14.70;;;7.18;;
49392;SDS011;35268;42.642;23.308;2023-03-23T09:26:39;10.57;;;7.15;;
49392;SDS011;35268;42.642;23.308;2023-03-23T09:29:04;13.70;;;7.15;;
49392;SDS011;35268;42.642;23.308;2023-03-23T09:31:30;12.43;;;7.03;;
49392;SDS011;35268;42.642;23.308;2023-03-23T09:33:56;14.32;;;7.18;;
49392;SDS011;35268;42.642;23.308;2023-03-23T09:36:23;11.50;;;6.53;;
49392;SDS011;35268;42.642;23.308;2023-03-23T09:38:51;17.02;;;7.70;;
49392;SDS011;35268;42.642;23.308;2023-03-23T09:49:17;15.90;;;7.28;;
49392;SDS011;35268;42.642;23.308;2023-03-23T09:54:36;16.85;;;7.03;;
49392;SDS011;35268;42.642;23.308;2023-03-23T09:57:20;12.20;;;7.13;;
49392;SDS011;35268;42.642;23.308;2023-03-23T09:59:58;11.10;;;6.72;;
49392;SDS011;35268;42.642;23.308;2023-03-23T10:02:32;16.63;;;6.85;;
49392;SDS011;35268;42.642;23.308;2023-03-23T10:07:56;12.90;;;6.47;;
49392;SDS011;35268;42.642;23.308;2023-03-23T10:10:24;23.55;;;7.28;;
49392;SDS011;35268;42.642;23.308;2023-03-23T10:13:09;20.27;;;7.80;;
49392;SDS011;35268;42.642;23.308;2023-03-23T10:15:42;18.20;;;9.88;;
49392;SDS011;35268;42.642;23.308;2023-03-23T10:18:12;20.13;;;7.53;;
49392;SDS011;35268;42.642;23.308;2023-03-23T10:20:59;24.85;;;7.20;;
49392;SDS011;35268;42.642;23.308;2023-03-23T10:29:20;10.43;;;6.38;;
49392;SDS011;35268;42.642;23.308;2023-03-23T10:32:11;10.75;;;7.05;;
49392;SDS011;35268;42.642;23.308;2023-03-23T10:37:29;13.77;;;5.82;;
49392;SDS011;35268;42.642;23.308;2023-03-23T10:39:59;10.55;;;6.63;;
49392;SDS011;35268;42.642;23.308;2023-03-23T10:42:36;9.23;;;6.00;;
49392;SDS011;35268;42.642;23.308;2023-03-23T10:50:33;10.93;;;6.20;;
49392;SDS011;35268;42.642;23.308;2023-03-23T10:53:00;9.65;;;5.72;;
49392;SDS011;35268;42.642;23.308;2023-03-23T10:55:38;12.82;;;6.00;;
49392;SDS011;35268;42.642;23.308;2023-03-23T10:58:08;14.13;;;6.50;;
49392;SDS011;35268;42.642;23.308;2023-03-23T11:00:45;9.32;;;5.40;;
49392;SDS011;35268;42.642;23.308;2023-03-23T11:05:50;11.63;;;6.22;;
49392;SDS011;35268;42.642;23.308;2023-03-23T11:08:28;11.20;;;5.95;;
49392;SDS011;35268;42.642;23.308;2023-03-23T11:10:59;12.73;;;5.90;;
49392;SDS011;35268;42.642;23.308;2023-03-23T11:13:37;10.82;;;5.35;;
49392;SDS011;35268;42.642;23.308;2023-03-23T11:16:07;9.05;;;5.05;;
49392;SDS011;35268;42.642;23.308;2023-03-23T11:18:38;10.65;;;5.57;;
49392;SDS011;35268;42.642;23.308;2023-03-23T11:21:05;9.57;;;5.82;;
49392;SDS011;35268;42.642;23.308;2023-03-23T11:23:37;9.93;;;6.28;;
49392;SDS011;35268;42.642;23.308;2023-03-23T11:26:12;9.65;;;5.72;;
49392;SDS011;35268;42.642;23.308;2023-03-23T11:28:47;11.88;;;6.28;;
49392;SDS011;35268;42.642;23.308;2023-03-23T11:31:15;15.83;;;6.23;;
49392;SDS011;35268;42.642;23.308;2023-03-23T11:33:55;11.45;;;5.47;;
49392;SDS011;35268;42.642;23.308;2023-03-23T11:36:33;10.32;;;6.20;;
49392;SDS011;35268;42.642;23.308;2023-03-23T11:39:02;12.48;;;5.90;;
49392;SDS011;35268;42.642;23.308;2023-03-23T11:41:32;10.32;;;5.13;;
49392;SDS011;35268;42.642;23.308;2023-03-23T11:44:02;10.32;;;5.45;;
49392;SDS011;35268;42.642;23.308;2023-03-23T11:46:37;15.80;;;6.00;;
49392;SDS011;35268;42.642;23.308;2023-03-23T11:49:18;17.10;;;6.15;;
49392;SDS011;35268;42.642;23.308;2023-03-23T11:51:53;9.98;;;6.00;;
49392;SDS011;35268;42.642;23.308;2023-03-23T11:54:34;17.63;;;6.47;;
49392;SDS011;35268;42.642;23.308;2023-03-23T11:57:23;9.07;;;4.95;;
49392;SDS011;35268;42.642;23.308;2023-03-23T11:59:49;11.52;;;5.15;;
49392;SDS011;35268;42.642;23.308;2023-03-23T12:08:02;8.93;;;4.97;;
49392;SDS011;35268;42.642;23.308;2023-03-23T12:10:55;9.38;;;4.97;;
49392;SDS011;35268;42.642;23.308;2023-03-23T12:21:36;11.55;;;5.50;;
49392;SDS011;35268;42.642;23.308;2023-03-23T12:24:33;8.50;;;4.57;;
49392;SDS011;35268;42.642;23.308;2023-03-23T12:30:29;7.82;;;5.00;;
49392;SDS011;35268;42.642;23.308;2023-03-23T12:35:56;7.47;;;5.05;;
49392;SDS011;35268;42.642;23.308;2023-03-23T12:42:13;8.05;;;4.72;;
49392;SDS011;35268;42.642;23.308;2023-03-23T12:53:56;8.32;;;4.88;;
49392;SDS011;35268;42.642;23.308;2023-03-23T12:57:04;9.05;;;4.63;;
49392;SDS011;35268;42.642;23.308;2023-03-23T12:59:40;6.35;;;4.43;;
49392;SDS011;35268;42.642;23.308;2023-03-23T13:02:11;13.15;;;5.03;;
49392;SDS011;35268;42.642;23.308;2023-03-23T13:04:47;9.77;;;5.00;;
49392;SDS011;35268;42.642;23.308;2023-03-23T13:07:19;10.55;;;5.57;;
49392;SDS011;35268;42.642;23.308;2023-03-23T13:09:55;7.30;;;4.63;;
49392;SDS011;35268;42.642;23.308;2023-03-23T13:12:29;8.15;;;4.30;;
49392;SDS011;35268;42.642;23.308;2023-03-23T13:18:19;6.80;;;4.20;;
49392;SDS011;35268;42.642;23.308;2023-03-23T13:20:58;7.13;;;4.47;;
49392;SDS011;35268;42.642;23.308;2023-03-23T13:26:00;7.20;;;3.83;;
49392;SDS011;35268;42.642;23.308;2023-03-23T13:33:59;6.97;;;4.13;;
49392;SDS011;35268;42.642;23.308;2023-03-23T13:36:36;10.30;;;5.80;;
49392;SDS011;35268;42.642;23.308;2023-03-23T13:39:05;7.70;;;4.97;;
49392;SDS011;35268;42.642;23.308;2023-03-23T13:44:42;7.38;;;4.30;;
49392;SDS011;35268;42.642;23.308;2023-03-23T13:49:46;7.50;;;4.35;;
49392;SDS011;35268;42.642;23.308;2023-03-23T14:05:41;9.55;;;4.00;;
49392;SDS011;35268;42.642;23.308;2023-03-23T14:13:06;9.23;;;3.58;;
49392;SDS011;35268;42.642;23.308;2023-03-23T14:15:43;6.07;;;3.42;;
49392;SDS011;35268;42.642;23.308;2023-03-23T14:18:14;7.05;;;4.05;;
49392;SDS011;35268;42.642;23.308;2023-03-23T14:20:41;8.60;;;3.65;;
49392;SDS011;35268;42.642;23.308;2023-03-23T14:23:14;7.63;;;4.65;;
49392;SDS011;35268;42.642;23.308;2023-03-23T14:25:42;9.32;;;4.55;;
49392;SDS011;35268;42.642;23.308;2023-03-23T14:28:18;9.23;;;4.63;;
49392;SDS011;35268;42.642;23.308;2023-03-23T14:30:46;11.05;;;4.90;;
49392;SDS011;35268;42.642;23.308;2023-03-23T14:33:12;7.45;;;4.80;;
49392;SDS011;35268;42.642;23.308;2023-03-23T14:35:40;11.00;;;5.05;;
49392;SDS011;35268;42.642;23.308;2023-03-23T14:38:14;7.72;;;4.50;;
49392;SDS011;35268;42.642;23.308;2023-03-23T14:40:43;15.75;;;4.40;;
49392;SDS011;35268;42.642;23.308;2023-03-23T14:43:10;7.55;;;4.72;;
49392;SDS011;35268;42.642;23.308;2023-03-23T14:45:39;7.07;;;3.55;;
49392;SDS011;35268;42.642;23.308;2023-03-23T14:48:05;7.45;;;3.97;;
49392;SDS011;35268;42.642;23.308;2023-03-23T14:50:42;14.50;;;4.28;;
49392;SDS011;35268;42.642;23.308;2023-03-23T14:55:49;10.90;;;4.20;;
49392;SDS011;35268;42.642;23.308;2023-03-23T14:58:17;11.30;;;4.40;;
49392;SDS011;35268;42.642;23.308;2023-03-23T15:01:05;11.05;;;4.82;;
49392;SDS011;35268;42.642;23.308;2023-03-23T15:03:45;14.95;;;4.75;;
49392;SDS011;35268;42.642;23.308;2023-03-23T15:06:39;7.25;;;4.03;;
49392;SDS011;35268;42.642;23.308;2023-03-23T15:09:09;6.70;;;3.50;;
49392;SDS011;35268;42.642;23.308;2023-03-23T15:11:38;7.72;;;4.30;;
49392;SDS011;35268;42.642;23.308;2023-03-23T15:14:24;9.90;;;3.97;;
49392;SDS011;35268;42.642;23.308;2023-03-23T15:16:53;8.93;;;4.18;;
49392;SDS011;35268;42.642;23.308;2023-03-23T15:19:23;8.13;;;4.70;;
49392;SDS011;35268;42.642;23.308;2023-03-23T15:26:45;7.47;;;4.68;;
49392;SDS011;35268;42.642;23.308;2023-03-23T15:29:12;9.60;;;4.50;;
49392;SDS011;35268;42.642;23.308;2023-03-23T15:31:39;11.98;;;4.25;;
49392;SDS011;35268;42.642;23.308;2023-03-23T15:34:10;11.48;;;4.88;;
49392;SDS011;35268;42.642;23.308;2023-03-23T15:36:43;12.60;;;4.78;;
49392;SDS011;35268;42.642;23.308;2023-03-23T15:39:12;9.60;;;4.65;;
49392;SDS011;35268;42.642;23.308;2023-03-23T15:41:45;12.10;;;4.80;;
49392;SDS011;35268;42.642;23.308;2023-03-23T15:44:20;8.85;;;4.47;;
49392;SDS011;35268;42.642;23.308;2023-03-23T15:46:50;16.40;;;4.55;;
49392;SDS011;35268;42.642;23.308;2023-03-23T15:49:16;9.48;;;4.20;;
49392;SDS011;35268;42.642;23.308;2023-03-23T15:51:42;9.52;;;4.78;;
49392;SDS011;35268;42.642;23.308;2023-03-23T15:54:09;8.90;;;5.10;;
49392;SDS011;35268;42.642;23.308;2023-03-23T15:56:38;12.50;;;4.72;;
49392;SDS011;35268;42.642;23.308;2023-03-23T15:59:04;9.77;;;4.95;;
49392;SDS011;35268;42.642;23.308;2023-03-23T16:01:29;13.27;;;5.68;;
49392;SDS011;35268;42.642;23.308;2023-03-23T16:06:39;7.35;;;4.75;;
49392;SDS011;35268;42.642;23.308;2023-03-23T16:09:05;15.68;;;6.25;;
49392;SDS011;35268;42.642;23.308;2023-03-23T16:11:38;13.98;;;6.05;;
49392;SDS011;35268;42.642;23.308;2023-03-23T16:14:03;14.48;;;7.22;;
49392;SDS011;35268;42.642;23.308;2023-03-23T16:16:31;22.92;;;10.18;;
49392;SDS011;35268;42.642;23.308;2023-03-23T16:18:59;24.98;;;10.32;;
49392;SDS011;35268;42.642;23.308;2023-03-23T16:21:24;23.20;;;10.18;;
49392;SDS011;35268;42.642;23.308;2023-03-23T16:23:50;17.67;;;10.52;;
49392;SDS011;35268;42.642;23.308;2023-03-23T16:26:16;31.73;;;13.27;;
49392;SDS011;35268;42.642;23.308;2023-03-23T16:28:42;38.30;;;17.45;;
49392;SDS011;35268;42.642;23.308;2023-03-23T16:31:07;37.08;;;16.10;;
49392;SDS011;35268;42.642;23.308;2023-03-23T16:33:33;30.63;;;13.02;;
49392;SDS011;35268;42.642;23.308;2023-03-23T16:35:58;41.08;;;15.25;;
49392;SDS011;35268;42.642;23.308;2023-03-23T16:38:24;28.73;;;13.38;;
49392;SDS011;35268;42.642;23.308;2023-03-23T16:40:50;34.75;;;11.00;;
49392;SDS011;35268;42.642;23.308;2023-03-23T16:43:15;22.08;;;10.65;;
49392;SDS011;35268;42.642;23.308;2023-03-23T16:45:41;28.60;;;11.05;;
49392;SDS011;35268;42.642;23.308;2023-03-23T16:48:10;31.08;;;12.27;;